Oelrichs, SD (57763)

3:26 AM MST on January 26, 2015 (GMT -0700)
NonFedAWOS HOTSPRINGS SD US SUPERAWOS | Change Station
CLOSE
Current Station
Personal Weather Station
Location: Hot Springs, SD
Elevation: 3147 ft
Nearby Weather Stations

Elev 3147 ft 43.37 °N, 103.39 °W | Updated 31 minutes ago

Partly Cloudy
Partly Cloudy
45 °F
Feels Like 40 °F
N
9
Wind Variable Wind from SSW
Gusts 0.0 mph

Today
High -- | Low -- °F
--% Chance of Precip.
Yesterday
High -- | Low -- °F
Precip. -- in
7:14 AM 4:56 PM
Waxing Crescent, 42% visible
Pressure 30.11 in
Visibility 10.0 miles
Clouds Clear
Windchill 40 °F
Dew Point 34 °F
Humidity 66%
Rainfall -999.00 in
Snow Depth Not available.
UV 0 out of 12
Pollen .10 out of 12
Air Quality Not available.
Flu Activity Not available.
METAR KCDR 260953Z AUTO 33009KT 10SM CLR 06/M01 A3007 RMK AO2 SLP194 T00561011

More Conditions Fewer Conditions

Pressure 30.11 in
Visibility 10.0 miles
Clouds Clear
Windchill 40 °F
Dew Point 34 °F
Humidity 66%
Rainfall -999.00 in
Snow Depth Not available.
UV 0 out of 12
Pollen .10 out of 12
Air Quality Not available.
Flu Activity Not available.
METAR KCDR 260953Z AUTO 33009KT 10SM CLR 06/M01 A3007 RMK AO2 SLP194 T00561011

More Conditions Fewer Conditions

10-Day Weather Forecast

Almanac

Astronomy

Jan. 26, 2015 Rise Set
Actual Time
Civil Twilight
Nautical Twilight
Astronomical Twilight
Moon
Length of Visible Light
Length of Day
Tomorrow will be .
, % of the Moon is Illuminated

Today's Extremes

State Highs State Lows

Community

WunderPhotos

Upload Photos

1,790,171 photos uploaded!

WunderBlogs® & News

Nearby

Air Quality

  Air Quality AQ Index Pollutant
Not available.

Snow Depth

Station Depth Elevation

Earthquake Activity

City Distance Mag. Time & Date
Minimum magnitude displayed is 2.5.

Coastal Water Temperatures

Place Temperature

Nearby Weather Stations